Terminal Aerodrome Forecast
Issued by NWS Tampa Bay Area, FL

Home | Current Version | Previous Version | Text Only | Print | Product List | Glossary On
Versions: 1 2 3 4 5 6 7 8 9 10 11 12 13
000
FTUS42 KTBW 272300
TAFSRQ
TAF
KSRQ 272329Z 2800/2824 34005KT P6SM BKN060
     FM280200 07005KT P6SM SCT070
     FM281400 13007KT P6SM SCT045
     FM281900 23008KT P6SM SCT050=

USA.gov is the U.S. government's official web portal to all federal, state and local government web resources and services.